sensor_id;sensor_type;location;lat;lon;timestamp;P1;durP1;ratioP1;P2;durP2;ratioP2
60494;SDS011;46342;49.046;11.920;2023-12-14T00:00:25;1.15;;;1.13;;
60494;SDS011;46342;49.046;11.920;2023-12-14T00:02:50;1.38;;;1.27;;
60494;SDS011;46342;49.046;11.920;2023-12-14T00:05:16;1.55;;;1.25;;
60494;SDS011;46342;49.046;11.920;2023-12-14T00:07:41;1.42;;;1.20;;
60494;SDS011;46342;49.046;11.920;2023-12-14T00:10:07;2.28;;;1.25;;
60494;SDS011;46342;49.046;11.920;2023-12-14T00:12:33;2.60;;;1.20;;
60494;SDS011;46342;49.046;11.920;2023-12-14T00:14:58;1.17;;;1.08;;
60494;SDS011;46342;49.046;11.920;2023-12-14T00:17:24;1.65;;;1.30;;
60494;SDS011;46342;49.046;11.920;2023-12-14T00:19:49;1.30;;;1.20;;
60494;SDS011;46342;49.046;11.920;2023-12-14T00:22:15;1.42;;;1.33;;
60494;SDS011;46342;49.046;11.920;2023-12-14T00:24:41;1.35;;;1.10;;
60494;SDS011;46342;49.046;11.920;2023-12-14T00:27:07;1.10;;;1.00;;
60494;SDS011;46342;49.046;11.920;2023-12-14T00:29:32;1.00;;;0.90;;
60494;SDS011;46342;49.046;11.920;2023-12-14T00:31:58;1.42;;;1.33;;
60494;SDS011;46342;49.046;11.920;2023-12-14T00:34:23;1.50;;;1.25;;
60494;SDS011;46342;49.046;11.920;2023-12-14T00:36:49;1.27;;;1.17;;
60494;SDS011;46342;49.046;11.920;2023-12-14T00:39:14;1.10;;;1.00;;
60494;SDS011;46342;49.046;11.920;2023-12-14T00:41:40;1.20;;;1.10;;
60494;SDS011;46342;49.046;11.920;2023-12-14T00:44:06;1.10;;;1.00;;
60494;SDS011;46342;49.046;11.920;2023-12-14T00:46:31;1.27;;;1.17;;
60494;SDS011;46342;49.046;11.920;2023-12-14T00:48:57;1.08;;;0.98;;
60494;SDS011;46342;49.046;11.920;2023-12-14T00:51:22;1.20;;;1.10;;
60494;SDS011;46342;49.046;11.920;2023-12-14T00:53:48;1.20;;;1.10;;
60494;SDS011;46342;49.046;11.920;2023-12-14T00:56:13;1.02;;;1.00;;
60494;SDS011;46342;49.046;11.920;2023-12-14T00:58:39;1.23;;;0.90;;
60494;SDS011;46342;49.046;11.920;2023-12-14T01:01:04;1.20;;;1.10;;
60494;SDS011;46342;49.046;11.920;2023-12-14T01:03:30;0.98;;;0.98;;
60494;SDS011;46342;49.046;11.920;2023-12-14T01:05:55;1.92;;;1.00;;
60494;SDS011;46342;49.046;11.920;2023-12-14T01:08:21;1.35;;;1.00;;
60494;SDS011;46342;49.046;11.920;2023-12-14T01:10:47;0.95;;;0.90;;
60494;SDS011;46342;49.046;11.920;2023-12-14T01:13:12;0.90;;;0.90;;
60494;SDS011;46342;49.046;11.920;2023-12-14T01:15:38;0.80;;;0.80;;
60494;SDS011;46342;49.046;11.920;2023-12-14T01:18:03;1.05;;;0.90;;
60494;SDS011;46342;49.046;11.920;2023-12-14T01:20:29;2.28;;;0.90;;
60494;SDS011;46342;49.046;11.920;2023-12-14T01:22:54;0.73;;;0.73;;
60494;SDS011;46342;49.046;11.920;2023-12-14T01:25:20;1.27;;;0.95;;
60494;SDS011;46342;49.046;11.920;2023-12-14T01:27:46;1.00;;;0.90;;
60494;SDS011;46342;49.046;11.920;2023-12-14T01:30:11;0.82;;;0.82;;
60494;SDS011;46342;49.046;11.920;2023-12-14T01:32:37;0.80;;;0.80;;
60494;SDS011;46342;49.046;11.920;2023-12-14T01:35:03;0.88;;;0.88;;
60494;SDS011;46342;49.046;11.920;2023-12-14T01:37:29;0.77;;;0.77;;
60494;SDS011;46342;49.046;11.920;2023-12-14T01:39:54;0.80;;;0.80;;
60494;SDS011;46342;49.046;11.920;2023-12-14T01:42:20;1.58;;;1.10;;
60494;SDS011;46342;49.046;11.920;2023-12-14T01:44:46;0.70;;;0.70;;
60494;SDS011;46342;49.046;11.920;2023-12-14T01:47:11;0.90;;;0.90;;
60494;SDS011;46342;49.046;11.920;2023-12-14T01:49:37;1.58;;;0.93;;
60494;SDS011;46342;49.046;11.920;2023-12-14T01:52:02;1.17;;;1.10;;
60494;SDS011;46342;49.046;11.920;2023-12-14T01:54:28;0.70;;;0.70;;
60494;SDS011;46342;49.046;11.920;2023-12-14T01:56:53;1.23;;;0.90;;
60494;SDS011;46342;49.046;11.920;2023-12-14T01:59:20;1.20;;;1.10;;
60494;SDS011;46342;49.046;11.920;2023-12-14T02:01:46;1.67;;;1.20;;
60494;SDS011;46342;49.046;11.920;2023-12-14T02:04:17;1.13;;;1.05;;
60494;SDS011;46342;49.046;11.920;2023-12-14T02:06:42;1.08;;;1.00;;
60494;SDS011;46342;49.046;11.920;2023-12-14T02:09:08;1.10;;;1.00;;
60494;SDS011;46342;49.046;11.920;2023-12-14T02:11:34;1.40;;;1.30;;
60494;SDS011;46342;49.046;11.920;2023-12-14T02:14:08;0.90;;;0.90;;
60494;SDS011;46342;49.046;11.920;2023-12-14T02:16:34;1.83;;;1.23;;
60494;SDS011;46342;49.046;11.920;2023-12-14T02:19:00;1.30;;;1.20;;
60494;SDS011;46342;49.046;11.920;2023-12-14T02:21:25;1.38;;;1.27;;
60494;SDS011;46342;49.046;11.920;2023-12-14T02:23:51;1.30;;;1.20;;
60494;SDS011;46342;49.046;11.920;2023-12-14T02:26:17;1.50;;;1.40;;
60494;SDS011;46342;49.046;11.920;2023-12-14T02:28:42;1.30;;;1.20;;
60494;SDS011;46342;49.046;11.920;2023-12-14T02:31:08;2.42;;;1.45;;
60494;SDS011;46342;49.046;11.920;2023-12-14T02:33:34;1.50;;;1.40;;
60494;SDS011;46342;49.046;11.920;2023-12-14T02:35:59;1.52;;;1.20;;
60494;SDS011;46342;49.046;11.920;2023-12-14T02:38:25;2.08;;;1.30;;
60494;SDS011;46342;49.046;11.920;2023-12-14T02:40:51;1.45;;;1.35;;
60494;SDS011;46342;49.046;11.920;2023-12-14T02:43:17;1.40;;;1.30;;
60494;SDS011;46342;49.046;11.920;2023-12-14T02:45:44;1.77;;;1.60;;
60494;SDS011;46342;49.046;11.920;2023-12-14T02:48:10;1.42;;;1.33;;
60494;SDS011;46342;49.046;11.920;2023-12-14T02:50:35;1.40;;;1.30;;
60494;SDS011;46342;49.046;11.920;2023-12-14T02:53:01;1.63;;;1.50;;
60494;SDS011;46342;49.046;11.920;2023-12-14T02:55:26;1.30;;;1.20;;
60494;SDS011;46342;49.046;11.920;2023-12-14T02:57:52;1.30;;;1.20;;
60494;SDS011;46342;49.046;11.920;2023-12-14T03:00:17;1.90;;;1.27;;
60494;SDS011;46342;49.046;11.920;2023-12-14T03:02:43;1.70;;;1.60;;
60494;SDS011;46342;49.046;11.920;2023-12-14T03:05:09;1.73;;;1.58;;
60494;SDS011;46342;49.046;11.920;2023-12-14T03:07:34;1.50;;;1.40;;
60494;SDS011;46342;49.046;11.920;2023-12-14T03:10:00;2.08;;;1.80;;
60494;SDS011;46342;49.046;11.920;2023-12-14T03:12:27;2.22;;;1.80;;
60494;SDS011;46342;49.046;11.920;2023-12-14T03:14:52;2.67;;;1.75;;
60494;SDS011;46342;49.046;11.920;2023-12-14T03:17:18;2.95;;;2.15;;
60494;SDS011;46342;49.046;11.920;2023-12-14T03:19:43;2.10;;;1.75;;
60494;SDS011;46342;49.046;11.920;2023-12-14T03:22:09;2.05;;;1.83;;
60494;SDS011;46342;49.046;11.920;2023-12-14T03:24:37;2.05;;;1.73;;
60494;SDS011;46342;49.046;11.920;2023-12-14T03:27:03;1.52;;;1.42;;
60494;SDS011;46342;49.046;11.920;2023-12-14T03:29:29;1.60;;;1.50;;
60494;SDS011;46342;49.046;11.920;2023-12-14T03:31:55;2.13;;;1.73;;
60494;SDS011;46342;49.046;11.920;2023-12-14T03:34:21;1.52;;;1.42;;
60494;SDS011;46342;49.046;11.920;2023-12-14T03:36:47;1.52;;;1.40;;
60494;SDS011;46342;49.046;11.920;2023-12-14T03:39:12;1.35;;;1.25;;
60494;SDS011;46342;49.046;11.920;2023-12-14T03:41:38;1.83;;;1.50;;
60494;SDS011;46342;49.046;11.920;2023-12-14T03:44:03;1.70;;;1.60;;
60494;SDS011;46342;49.046;11.920;2023-12-14T03:46:29;1.90;;;1.70;;
60494;SDS011;46342;49.046;11.920;2023-12-14T03:48:55;2.35;;;1.70;;
60494;SDS011;46342;49.046;11.920;2023-12-14T03:51:20;2.30;;;1.83;;
60494;SDS011;46342;49.046;11.920;2023-12-14T03:53:46;2.08;;;1.80;;
60494;SDS011;46342;49.046;11.920;2023-12-14T03:56:12;1.98;;;1.80;;
60494;SDS011;46342;49.046;11.920;2023-12-14T03:58:37;2.30;;;2.10;;
60494;SDS011;46342;49.046;11.920;2023-12-14T04:01:03;2.08;;;1.90;;
60494;SDS011;46342;49.046;11.920;2023-12-14T04:03:29;2.45;;;2.10;;
60494;SDS011;46342;49.046;11.920;2023-12-14T04:05:55;3.30;;;2.00;;
60494;SDS011;46342;49.046;11.920;2023-12-14T04:08:20;2.30;;;2.10;;
60494;SDS011;46342;49.046;11.920;2023-12-14T04:10:46;3.15;;;2.10;;
60494;SDS011;46342;49.046;11.920;2023-12-14T04:13:11;2.60;;;2.40;;
60494;SDS011;46342;49.046;11.920;2023-12-14T04:15:37;2.50;;;2.30;;
60494;SDS011;46342;49.046;11.920;2023-12-14T04:18:02;2.60;;;2.13;;
60494;SDS011;46342;49.046;11.920;2023-12-14T04:20:28;2.67;;;2.38;;
60494;SDS011;46342;49.046;11.920;2023-12-14T04:22:54;3.13;;;2.13;;
60494;SDS011;46342;49.046;11.920;2023-12-14T04:25:20;2.78;;;2.28;;
60494;SDS011;46342;49.046;11.920;2023-12-14T04:27:45;3.90;;;2.30;;
60494;SDS011;46342;49.046;11.920;2023-12-14T04:30:11;2.92;;;2.20;;
60494;SDS011;46342;49.046;11.920;2023-12-14T04:32:37;2.40;;;2.20;;
60494;SDS011;46342;49.046;11.920;2023-12-14T04:35:03;3.17;;;2.20;;
60494;SDS011;46342;49.046;11.920;2023-12-14T04:37:29;2.75;;;2.22;;
60494;SDS011;46342;49.046;11.920;2023-12-14T04:39:55;3.17;;;2.40;;
60494;SDS011;46342;49.046;11.920;2023-12-14T04:42:22;2.40;;;2.20;;
60494;SDS011;46342;49.046;11.920;2023-12-14T04:44:47;7.15;;;2.40;;
60494;SDS011;46342;49.046;11.920;2023-12-14T04:47:13;2.97;;;2.67;;
60494;SDS011;46342;49.046;11.920;2023-12-14T04:49:39;2.97;;;2.42;;
60494;SDS011;46342;49.046;11.920;2023-12-14T04:52:04;4.72;;;3.00;;
60494;SDS011;46342;49.046;11.920;2023-12-14T04:54:30;3.55;;;2.88;;
60494;SDS011;46342;49.046;11.920;2023-12-14T04:56:56;3.20;;;2.42;;
60494;SDS011;46342;49.046;11.920;2023-12-14T04:59:22;3.45;;;2.38;;
60494;SDS011;46342;49.046;11.920;2023-12-14T05:01:47;3.63;;;2.85;;
60494;SDS011;46342;49.046;11.920;2023-12-14T05:04:13;3.63;;;3.10;;
60494;SDS011;46342;49.046;11.920;2023-12-14T05:06:38;4.75;;;3.28;;
60494;SDS011;46342;49.046;11.920;2023-12-14T05:09:04;3.58;;;2.80;;
60494;SDS011;46342;49.046;11.920;2023-12-14T05:11:30;3.67;;;3.17;;
60494;SDS011;46342;49.046;11.920;2023-12-14T05:13:56;3.97;;;3.13;;
60494;SDS011;46342;49.046;11.920;2023-12-14T05:16:22;5.70;;;3.78;;
60494;SDS011;46342;49.046;11.920;2023-12-14T05:18:51;6.18;;;3.55;;
60494;SDS011;46342;49.046;11.920;2023-12-14T05:21:18;3.85;;;3.30;;
60494;SDS011;46342;49.046;11.920;2023-12-14T05:23:44;4.38;;;3.35;;
60494;SDS011;46342;49.046;11.920;2023-12-14T05:26:09;5.25;;;3.38;;
60494;SDS011;46342;49.046;11.920;2023-12-14T05:28:35;7.35;;;4.03;;
60494;SDS011;46342;49.046;11.920;2023-12-14T05:31:00;4.80;;;3.90;;
60494;SDS011;46342;49.046;11.920;2023-12-14T05:33:27;5.38;;;3.50;;
60494;SDS011;46342;49.046;11.920;2023-12-14T05:35:53;4.45;;;3.53;;
60494;SDS011;46342;49.046;11.920;2023-12-14T05:38:19;5.60;;;3.28;;
60494;SDS011;46342;49.046;11.920;2023-12-14T05:40:45;9.27;;;4.18;;
60494;SDS011;46342;49.046;11.920;2023-12-14T05:43:10;4.78;;;3.58;;
60494;SDS011;46342;49.046;11.920;2023-12-14T05:45:36;5.95;;;3.35;;
60494;SDS011;46342;49.046;11.920;2023-12-14T05:48:02;4.22;;;3.10;;
60494;SDS011;46342;49.046;11.920;2023-12-14T05:50:30;4.93;;;3.47;;
60494;SDS011;46342;49.046;11.920;2023-12-14T05:52:55;6.05;;;3.67;;
60494;SDS011;46342;49.046;11.920;2023-12-14T05:55:21;5.78;;;3.17;;
60494;SDS011;46342;49.046;11.920;2023-12-14T05:57:47;4.38;;;3.47;;
60494;SDS011;46342;49.046;11.920;2023-12-14T06:00:13;3.63;;;2.70;;
60494;SDS011;46342;49.046;11.920;2023-12-14T06:02:39;4.32;;;3.00;;
60494;SDS011;46342;49.046;11.920;2023-12-14T06:05:05;3.78;;;3.17;;
60494;SDS011;46342;49.046;11.920;2023-12-14T06:07:32;4.63;;;3.05;;
60494;SDS011;46342;49.046;11.920;2023-12-14T06:09:58;3.97;;;3.03;;
60494;SDS011;46342;49.046;11.920;2023-12-14T06:12:23;5.63;;;3.25;;
60494;SDS011;46342;49.046;11.920;2023-12-14T06:14:49;3.67;;;2.60;;
60494;SDS011;46342;49.046;11.920;2023-12-14T06:17:15;3.15;;;2.85;;
60494;SDS011;46342;49.046;11.920;2023-12-14T06:19:41;3.58;;;2.55;;
60494;SDS011;46342;49.046;11.920;2023-12-14T06:22:06;3.20;;;2.75;;
60494;SDS011;46342;49.046;11.920;2023-12-14T06:24:32;5.20;;;3.05;;
60494;SDS011;46342;49.046;11.920;2023-12-14T06:26:58;4.22;;;2.95;;
60494;SDS011;46342;49.046;11.920;2023-12-14T06:29:24;3.67;;;2.55;;
60494;SDS011;46342;49.046;11.920;2023-12-14T06:31:49;4.30;;;3.10;;
60494;SDS011;46342;49.046;11.920;2023-12-14T06:34:16;3.45;;;2.60;;
60494;SDS011;46342;49.046;11.920;2023-12-14T06:36:42;4.40;;;3.08;;
60494;SDS011;46342;49.046;11.920;2023-12-14T06:39:09;3.70;;;3.13;;
60494;SDS011;46342;49.046;11.920;2023-12-14T06:41:35;4.07;;;3.33;;
60494;SDS011;46342;49.046;11.920;2023-12-14T06:44:01;3.38;;;3.08;;
60494;SDS011;46342;49.046;11.920;2023-12-14T06:46:27;3.70;;;3.00;;
60494;SDS011;46342;49.046;11.920;2023-12-14T06:48:53;5.43;;;2.92;;
60494;SDS011;46342;49.046;11.920;2023-12-14T06:51:19;4.72;;;3.17;;
60494;SDS011;46342;49.046;11.920;2023-12-14T06:53:44;3.80;;;2.67;;
60494;SDS011;46342;49.046;11.920;2023-12-14T06:56:11;4.18;;;3.17;;
60494;SDS011;46342;49.046;11.920;2023-12-14T06:58:38;3.30;;;2.72;;
60494;SDS011;46342;49.046;11.920;2023-12-14T07:01:04;4.13;;;2.92;;
60494;SDS011;46342;49.046;11.920;2023-12-14T07:03:30;3.88;;;3.00;;
60494;SDS011;46342;49.046;11.920;2023-12-14T07:05:56;3.83;;;2.83;;
60494;SDS011;46342;49.046;11.920;2023-12-14T07:08:22;4.00;;;2.95;;
60494;SDS011;46342;49.046;11.920;2023-12-14T07:10:48;4.47;;;3.50;;
60494;SDS011;46342;49.046;11.920;2023-12-14T07:13:13;3.28;;;2.65;;
60494;SDS011;46342;49.046;11.920;2023-12-14T07:15:39;4.10;;;3.08;;
60494;SDS011;46342;49.046;11.920;2023-12-14T07:18:05;5.47;;;3.22;;
60494;SDS011;46342;49.046;11.920;2023-12-14T07:20:30;6.30;;;2.75;;
60494;SDS011;46342;49.046;11.920;2023-12-14T07:22:56;4.85;;;3.03;;
60494;SDS011;46342;49.046;11.920;2023-12-14T07:25:21;3.53;;;2.83;;
60494;SDS011;46342;49.046;11.920;2023-12-14T07:27:47;7.72;;;3.65;;
60494;SDS011;46342;49.046;11.920;2023-12-14T07:30:13;3.25;;;2.95;;
60494;SDS011;46342;49.046;11.920;2023-12-14T07:32:38;3.92;;;2.97;;
60494;SDS011;46342;49.046;11.920;2023-12-14T07:35:04;4.57;;;3.03;;
60494;SDS011;46342;49.046;11.920;2023-12-14T07:37:30;3.47;;;2.78;;
60494;SDS011;46342;49.046;11.920;2023-12-14T07:39:56;3.78;;;2.90;;
60494;SDS011;46342;49.046;11.920;2023-12-14T07:42:22;2.47;;;2.28;;
60494;SDS011;46342;49.046;11.920;2023-12-14T07:44:48;3.30;;;2.75;;
60494;SDS011;46342;49.046;11.920;2023-12-14T07:47:14;3.53;;;2.92;;
60494;SDS011;46342;49.046;11.920;2023-12-14T07:49:39;2.90;;;2.53;;
60494;SDS011;46342;49.046;11.920;2023-12-14T07:52:05;2.78;;;2.47;;
60494;SDS011;46342;49.046;11.920;2023-12-14T07:54:31;3.90;;;3.08;;
60494;SDS011;46342;49.046;11.920;2023-12-14T07:56:56;3.13;;;2.50;;
60494;SDS011;46342;49.046;11.920;2023-12-14T07:59:22;4.05;;;2.53;;
60494;SDS011;46342;49.046;11.920;2023-12-14T08:01:47;2.72;;;2.20;;
60494;SDS011;46342;49.046;11.920;2023-12-14T08:04:13;3.50;;;2.35;;
60494;SDS011;46342;49.046;11.920;2023-12-14T08:06:39;5.85;;;3.25;;
60494;SDS011;46342;49.046;11.920;2023-12-14T08:09:05;4.80;;;3.22;;
60494;SDS011;46342;49.046;11.920;2023-12-14T08:11:31;3.95;;;3.10;;
60494;SDS011;46342;49.046;11.920;2023-12-14T08:13:57;3.97;;;2.90;;
60494;SDS011;46342;49.046;11.920;2023-12-14T08:16:23;4.40;;;3.03;;
60494;SDS011;46342;49.046;11.920;2023-12-14T08:18:49;4.03;;;2.97;;
60494;SDS011;46342;49.046;11.920;2023-12-14T08:21:14;4.32;;;2.80;;
60494;SDS011;46342;49.046;11.920;2023-12-14T08:23:40;3.30;;;2.55;;
60494;SDS011;46342;49.046;11.920;2023-12-14T08:26:06;2.60;;;2.40;;
60494;SDS011;46342;49.046;11.920;2023-12-14T08:28:33;3.05;;;2.58;;
60494;SDS011;46342;49.046;11.920;2023-12-14T08:30:59;3.20;;;2.30;;
60494;SDS011;46342;49.046;11.920;2023-12-14T08:33:27;3.03;;;2.70;;
60494;SDS011;46342;49.046;11.920;2023-12-14T08:35:53;3.58;;;2.40;;
60494;SDS011;46342;49.046;11.920;2023-12-14T08:38:18;2.80;;;2.50;;
60494;SDS011;46342;49.046;11.920;2023-12-14T08:40:44;4.55;;;2.65;;
60494;SDS011;46342;49.046;11.920;2023-12-14T08:43:10;3.03;;;2.53;;
60494;SDS011;46342;49.046;11.920;2023-12-14T08:45:35;4.00;;;2.72;;
60494;SDS011;46342;49.046;11.920;2023-12-14T08:48:01;3.13;;;2.42;;
60494;SDS011;46342;49.046;11.920;2023-12-14T08:50:26;4.20;;;2.85;;
60494;SDS011;46342;49.046;11.920;2023-12-14T08:52:52;3.50;;;3.00;;
60494;SDS011;46342;49.046;11.920;2023-12-14T08:55:18;3.25;;;2.60;;
60494;SDS011;46342;49.046;11.920;2023-12-14T08:57:44;3.80;;;3.05;;
60494;SDS011;46342;49.046;11.920;2023-12-14T09:00:09;3.92;;;2.72;;
60494;SDS011;46342;49.046;11.920;2023-12-14T09:02:35;4.07;;;3.30;;
60494;SDS011;46342;49.046;11.920;2023-12-14T09:05:02;3.50;;;2.88;;
60494;SDS011;46342;49.046;11.920;2023-12-14T09:07:27;3.88;;;2.90;;
60494;SDS011;46342;49.046;11.920;2023-12-14T09:09:53;3.20;;;2.72;;
60494;SDS011;46342;49.046;11.920;2023-12-14T09:12:19;5.65;;;3.08;;
60494;SDS011;46342;49.046;11.920;2023-12-14T09:14:44;3.05;;;2.50;;
60494;SDS011;46342;49.046;11.920;2023-12-14T09:17:10;3.75;;;2.40;;
60494;SDS011;46342;49.046;11.920;2023-12-14T09:19:35;4.28;;;2.90;;
60494;SDS011;46342;49.046;11.920;2023-12-14T09:22:01;3.40;;;2.85;;
60494;SDS011;46342;49.046;11.920;2023-12-14T09:24:26;3.80;;;2.97;;
60494;SDS011;46342;49.046;11.920;2023-12-14T09:26:52;4.20;;;2.65;;
60494;SDS011;46342;49.046;11.920;2023-12-14T09:29:18;5.47;;;3.00;;
60494;SDS011;46342;49.046;11.920;2023-12-14T09:31:44;3.22;;;2.63;;
60494;SDS011;46342;49.046;11.920;2023-12-14T09:34:10;4.78;;;2.90;;
60494;SDS011;46342;49.046;11.920;2023-12-14T09:36:36;3.70;;;2.92;;
60494;SDS011;46342;49.046;11.920;2023-12-14T09:39:02;4.82;;;3.10;;
60494;SDS011;46342;49.046;11.920;2023-12-14T09:41:28;5.32;;;2.72;;
60494;SDS011;46342;49.046;11.920;2023-12-14T09:43:54;5.63;;;3.13;;
60494;SDS011;46342;49.046;11.920;2023-12-14T09:46:20;5.20;;;3.28;;
60494;SDS011;46342;49.046;11.920;2023-12-14T09:48:48;4.60;;;3.40;;
60494;SDS011;46342;49.046;11.920;2023-12-14T09:51:15;4.15;;;3.22;;
60494;SDS011;46342;49.046;11.920;2023-12-14T09:53:41;5.72;;;3.17;;
60494;SDS011;46342;49.046;11.920;2023-12-14T09:56:07;5.07;;;3.33;;
60494;SDS011;46342;49.046;11.920;2023-12-14T09:58:33;4.22;;;2.80;;
60494;SDS011;46342;49.046;11.920;2023-12-14T10:00:59;5.85;;;3.65;;
60494;SDS011;46342;49.046;11.920;2023-12-14T10:03:26;4.55;;;3.20;;
60494;SDS011;46342;49.046;11.920;2023-12-14T10:05:57;4.40;;;2.80;;
60494;SDS011;46342;49.046;11.920;2023-12-14T10:08:27;3.05;;;2.25;;
60494;SDS011;46342;49.046;11.920;2023-12-14T10:10:54;3.15;;;2.60;;
60494;SDS011;46342;49.046;11.920;2023-12-14T10:13:21;3.00;;;2.33;;
60494;SDS011;46342;49.046;11.920;2023-12-14T10:16:01;2.78;;;2.17;;
60494;SDS011;46342;49.046;11.920;2023-12-14T10:18:26;2.67;;;2.38;;
60494;SDS011;46342;49.046;11.920;2023-12-14T10:20:53;3.22;;;2.00;;
60494;SDS011;46342;49.046;11.920;2023-12-14T10:23:19;3.30;;;2.47;;
60494;SDS011;46342;49.046;11.920;2023-12-14T10:25:45;2.72;;;2.15;;
60494;SDS011;46342;49.046;11.920;2023-12-14T10:28:12;3.63;;;2.63;;
60494;SDS011;46342;49.046;11.920;2023-12-14T10:30:41;3.53;;;2.20;;
60494;SDS011;46342;49.046;11.920;2023-12-14T10:33:07;3.30;;;2.10;;
60494;SDS011;46342;49.046;11.920;2023-12-14T10:35:33;2.10;;;1.90;;
60494;SDS011;46342;49.046;11.920;2023-12-14T10:38:01;2.95;;;2.10;;
60494;SDS011;46342;49.046;11.920;2023-12-14T10:40:29;3.20;;;2.30;;
60494;SDS011;46342;49.046;11.920;2023-12-14T10:42:56;2.35;;;2.15;;
60494;SDS011;46342;49.046;11.920;2023-12-14T10:45:26;2.92;;;2.08;;
60494;SDS011;46342;49.046;11.920;2023-12-14T10:47:58;1.92;;;1.67;;
60494;SDS011;46342;49.046;11.920;2023-12-14T10:50:29;2.00;;;1.80;;
60494;SDS011;46342;49.046;11.920;2023-12-14T10:52:55;2.70;;;1.80;;
60494;SDS011;46342;49.046;11.920;2023-12-14T10:55:25;3.80;;;1.98;;
60494;SDS011;46342;49.046;11.920;2023-12-14T10:57:56;2.75;;;1.90;;
60494;SDS011;46342;49.046;11.920;2023-12-14T11:00:22;2.20;;;2.00;;
60494;SDS011;46342;49.046;11.920;2023-12-14T11:02:48;3.33;;;2.30;;
60494;SDS011;46342;49.046;11.920;2023-12-14T11:05:14;2.00;;;1.80;;
60494;SDS011;46342;49.046;11.920;2023-12-14T11:07:49;1.77;;;1.67;;
60494;SDS011;46342;49.046;11.920;2023-12-14T11:10:19;2.90;;;2.20;;
60494;SDS011;46342;49.046;11.920;2023-12-14T11:12:51;2.03;;;1.73;;
60494;SDS011;46342;49.046;11.920;2023-12-14T11:15:27;4.13;;;2.17;;
60494;SDS011;46342;49.046;11.920;2023-12-14T11:20:53;3.20;;;2.50;;
60494;SDS011;46342;49.046;11.920;2023-12-14T11:25:59;2.40;;;2.13;;
60494;SDS011;46342;49.046;11.920;2023-12-14T11:28:30;2.88;;;2.13;;
60494;SDS011;46342;49.046;11.920;2023-12-14T11:30:56;4.20;;;2.42;;
60494;SDS011;46342;49.046;11.920;2023-12-14T11:33:22;3.80;;;2.45;;
60494;SDS011;46342;49.046;11.920;2023-12-14T11:35:48;3.17;;;2.28;;
60494;SDS011;46342;49.046;11.920;2023-12-14T11:38:16;2.50;;;2.17;;
60494;SDS011;46342;49.046;11.920;2023-12-14T11:40:42;2.58;;;2.38;;
60494;SDS011;46342;49.046;11.920;2023-12-14T11:43:08;2.75;;;2.05;;
60494;SDS011;46342;49.046;11.920;2023-12-14T11:45:35;2.75;;;2.22;;
60494;SDS011;46342;49.046;11.920;2023-12-14T11:48:02;2.38;;;2.10;;
60494;SDS011;46342;49.046;11.920;2023-12-14T11:50:35;3.60;;;2.13;;
60494;SDS011;46342;49.046;11.920;2023-12-14T11:53:05;3.05;;;1.90;;
60494;SDS011;46342;49.046;11.920;2023-12-14T11:55:32;4.38;;;2.53;;
60494;SDS011;46342;49.046;11.920;2023-12-14T11:57:59;4.03;;;2.57;;
60494;SDS011;46342;49.046;11.920;2023-12-14T12:00:25;2.20;;;2.00;;
60494;SDS011;46342;49.046;11.920;2023-12-14T12:02:52;2.63;;;2.10;;
60494;SDS011;46342;49.046;11.920;2023-12-14T12:05:44;3.10;;;2.25;;
60494;SDS011;46342;49.046;11.920;2023-12-14T12:08:17;3.08;;;2.53;;
60494;SDS011;46342;49.046;11.920;2023-12-14T12:10:45;2.35;;;1.98;;
60494;SDS011;46342;49.046;11.920;2023-12-14T12:13:12;2.70;;;2.13;;
60494;SDS011;46342;49.046;11.920;2023-12-14T12:15:42;3.13;;;2.80;;
60494;SDS011;46342;49.046;11.920;2023-12-14T12:18:09;3.10;;;2.53;;
60494;SDS011;46342;49.046;11.920;2023-12-14T12:23:02;3.20;;;2.08;;
60494;SDS011;46342;49.046;11.920;2023-12-14T12:25:28;2.88;;;2.53;;
60494;SDS011;46342;49.046;11.920;2023-12-14T12:27:56;3.70;;;2.13;;
60494;SDS011;46342;49.046;11.920;2023-12-14T12:30:22;4.63;;;2.33;;
60494;SDS011;46342;49.046;11.920;2023-12-14T12:32:48;3.63;;;2.28;;
60494;SDS011;46342;49.046;11.920;2023-12-14T12:35:15;2.63;;;2.10;;
60494;SDS011;46342;49.046;11.920;2023-12-14T12:37:41;2.95;;;2.30;;
60494;SDS011;46342;49.046;11.920;2023-12-14T12:40:07;2.63;;;2.00;;
60494;SDS011;46342;49.046;11.920;2023-12-14T12:42:33;2.58;;;2.38;;
60494;SDS011;46342;49.046;11.920;2023-12-14T12:44:59;3.72;;;2.50;;
60494;SDS011;46342;49.046;11.920;2023-12-14T12:47:25;3.35;;;2.38;;
60494;SDS011;46342;49.046;11.920;2023-12-14T12:49:51;3.33;;;2.03;;
60494;SDS011;46342;49.046;11.920;2023-12-14T12:52:16;3.33;;;2.40;;
60494;SDS011;46342;49.046;11.920;2023-12-14T12:54:42;3.63;;;2.50;;
60494;SDS011;46342;49.046;11.920;2023-12-14T12:57:08;2.30;;;2.10;;
60494;SDS011;46342;49.046;11.920;2023-12-14T12:59:34;4.10;;;2.40;;
60494;SDS011;46342;49.046;11.920;2023-12-14T13:02:00;3.10;;;2.55;;
60494;SDS011;46342;49.046;11.920;2023-12-14T13:04:27;3.87;;;2.47;;
60494;SDS011;46342;49.046;11.920;2023-12-14T13:06:55;2.78;;;2.03;;
60494;SDS011;46342;49.046;11.920;2023-12-14T13:09:21;2.58;;;2.20;;
60494;SDS011;46342;49.046;11.920;2023-12-14T13:11:47;3.50;;;2.40;;
60494;SDS011;46342;49.046;11.920;2023-12-14T13:14:13;2.28;;;2.08;;
60494;SDS011;46342;49.046;11.920;2023-12-14T13:16:40;3.13;;;2.10;;
60494;SDS011;46342;49.046;11.920;2023-12-14T13:19:06;1.95;;;1.70;;
60494;SDS011;46342;49.046;11.920;2023-12-14T13:21:32;2.28;;;1.90;;
60494;SDS011;46342;49.046;11.920;2023-12-14T13:23:59;2.67;;;2.03;;
60494;SDS011;46342;49.046;11.920;2023-12-14T13:26:25;2.05;;;1.85;;
60494;SDS011;46342;49.046;11.920;2023-12-14T13:28:54;3.60;;;2.15;;
60494;SDS011;46342;49.046;11.920;2023-12-14T13:31:20;2.65;;;2.00;;
60494;SDS011;46342;49.046;11.920;2023-12-14T13:33:46;2.72;;;2.03;;
60494;SDS011;46342;49.046;11.920;2023-12-14T13:36:12;2.05;;;1.85;;
60494;SDS011;46342;49.046;11.920;2023-12-14T13:38:39;2.40;;;2.20;;
60494;SDS011;46342;49.046;11.920;2023-12-14T13:41:06;4.57;;;2.47;;
60494;SDS011;46342;49.046;11.920;2023-12-14T13:43:32;2.80;;;2.22;;
60494;SDS011;46342;49.046;11.920;2023-12-14T13:45:58;2.50;;;2.10;;
60494;SDS011;46342;49.046;11.920;2023-12-14T13:48:26;1.73;;;1.63;;
60494;SDS011;46342;49.046;11.920;2023-12-14T13:50:53;3.85;;;2.10;;
60494;SDS011;46342;49.046;11.920;2023-12-14T13:53:19;3.08;;;1.92;;
60494;SDS011;46342;49.046;11.920;2023-12-14T13:55:45;2.80;;;2.17;;
60494;SDS011;46342;49.046;11.920;2023-12-14T13:58:11;3.22;;;2.10;;
60494;SDS011;46342;49.046;11.920;2023-12-14T14:00:37;3.03;;;2.28;;
60494;SDS011;46342;49.046;11.920;2023-12-14T14:03:03;3.85;;;2.28;;
60494;SDS011;46342;49.046;11.920;2023-12-14T14:05:30;2.70;;;2.30;;
60494;SDS011;46342;49.046;11.920;2023-12-14T14:07:56;2.75;;;2.10;;
60494;SDS011;46342;49.046;11.920;2023-12-14T14:10:22;3.28;;;2.03;;
60494;SDS011;46342;49.046;11.920;2023-12-14T14:12:47;2.90;;;2.13;;
60494;SDS011;46342;49.046;11.920;2023-12-14T14:15:14;3.72;;;2.28;;
60494;SDS011;46342;49.046;11.920;2023-12-14T14:17:39;2.20;;;2.00;;
60494;SDS011;46342;49.046;11.920;2023-12-14T14:20:05;2.88;;;2.25;;
60494;SDS011;46342;49.046;11.920;2023-12-14T14:22:32;3.95;;;2.53;;
60494;SDS011;46342;49.046;11.920;2023-12-14T14:24:58;2.97;;;2.10;;
60494;SDS011;46342;49.046;11.920;2023-12-14T14:27:24;2.35;;;2.15;;
60494;SDS011;46342;49.046;11.920;2023-12-14T14:29:50;3.17;;;1.95;;
60494;SDS011;46342;49.046;11.920;2023-12-14T14:32:19;2.78;;;2.33;;
60494;SDS011;46342;49.046;11.920;2023-12-14T14:34:44;4.63;;;2.35;;